Time;durP1;ratioP1;P1;durP2;ratioP2;P2;SDS_P1;SDS_P2;PMS_P1;PMS_P2;Temp;Humidity;BMP_temperature;BMP_pressure;BME280_temperature;BME280_humidity;BME280_pressure;Samples;Min_cycle;Max_cycle;Signal;HPM_P1;HPM_P2
2023/10/03 00:00:09;;;;;;;71.35;67.95;;;;;;;9.15;100.00;102179.19;4937342;29;20526;-80
2023/10/03 00:02:36;;;;;;;48.50;46.00;;;;;;;9.22;100.00;102171.44;4924103;29;20483;-79
2023/10/03 00:05:11;;;;;;;70.50;67.00;;;;;;;9.34;100.00;102162.19;4933360;29;20062;-79
2023/10/03 00:07:39;;;;;;;58.83;55.88;;;;;;;9.23;100.00;102168.63;4941758;29;20540;-78
2023/10/03 00:10:09;;;;;;;58.60;55.53;;;;;;;9.31;100.00;102173.13;4935061;29;20519;-79
2023/10/03 00:12:36;;;;;;;65.75;62.42;;;;;;;9.18;100.00;102173.59;4920374;29;20056;-78
2023/10/03 00:15:03;;;;;;;59.42;56.53;;;;;;;8.80;100.00;102166.97;4914930;29;20520;-78
2023/10/03 00:17:35;;;;;;;61.50;58.50;;;;;;;8.68;100.00;102171.72;4927645;29;20058;-78
2023/10/03 00:20:04;;;;;;;59.47;56.55;;;;;;;8.59;100.00;102167.34;4927493;29;20499;-78
2023/10/03 00:22:31;;;;;;;68.05;64.60;;;;;;;8.22;100.00;102177.19;4933381;29;20416;-79
2023/10/03 00:24:59;;;;;;;62.97;59.78;;;;;;;8.54;100.00;102173.13;4933998;29;20055;-79
2023/10/03 00:27:35;;;;;;;63.70;60.50;;;;;;;8.79;100.00;102167.97;4915149;29;20148;-78
2023/10/03 00:30:10;;;;;;;60.22;57.13;;;;;;;8.37;100.00;102179.28;4930324;29;20079;-78
2023/10/03 00:32:40;;;;;;;65.85;62.65;;;;;;;8.58;100.00;102171.81;4933826;29;20127;-79
2023/10/03 00:35:08;;;;;;;56.85;53.85;;;;;;;8.44;100.00;102170.59;4927752;29;20056;-78
2023/10/03 00:37:46;;;;;;;65.57;62.40;;;;;;;8.48;100.00;102169.31;4922108;29;20063;-79
2023/10/03 00:40:25;;;;;;;64.35;61.25;;;;;;;7.99;100.00;102174.22;4932229;29;20059;-79
2023/10/03 00:42:59;;;;;;;69.40;65.90;;;;;;;8.08;100.00;102167.19;4929563;29;20045;-78
2023/10/03 00:45:39;;;;;;;55.50;52.83;;;;;;;8.16;100.00;102177.00;4918186;29;20059;-79
2023/10/03 00:48:17;;;;;;;61.45;58.35;;;;;;;7.52;100.00;102174.47;4927122;29;20245;-78
2023/10/03 00:50:57;;;;;;;60.88;57.60;;;;;;;7.84;100.00;102178.41;4938588;29;20051;-78
2023/10/03 00:53:24;;;;;;;66.07;62.67;;;;;;;8.34;100.00;102169.84;4936993;29;20055;-78
2023/10/03 00:56:09;;;;;;;76.40;72.80;;;;;;;8.22;100.00;102171.91;4930557;29;20229;-77
2023/10/03 00:58:41;;;;;;;71.43;67.28;;;;;;;7.92;100.00;102169.69;4920638;29;20504;-78
2023/10/03 01:01:15;;;;;;;;;;;;;;;7.90;100.00;102176.97;4937369;29;20051;-78
2023/10/03 01:03:42;;;;;;;85.82;81.43;;;;;;;8.07;100.00;102173.44;4941082;28;20009;-78
2023/10/03 01:06:10;;;;;;;68.30;64.90;;;;;;;7.86;100.00;102165.84;4945918;28;20485;-78
2023/10/03 01:08:39;;;;;;;60.25;57.05;;;;;;;7.29;100.00;102166.16;4929158;29;20051;-78
2023/10/03 01:11:07;;;;;;;61.22;57.88;;;;;;;7.64;100.00;102167.13;4925398;29;20139;-78
2023/10/03 01:13:34;;;;;;;61.03;57.90;;;;;;;7.21;100.00;102159.94;4936567;28;20070;-79
2023/10/03 01:16:05;;;;;;;63.67;60.38;;;;;;;7.68;100.00;102162.38;4929228;29;20055;-79
2023/10/03 01:18:32;;;;;;;48.55;45.95;;;;;;;7.96;100.00;102161.31;4934222;29;20047;-79
2023/10/03 01:21:04;;;;;;;46.97;44.58;;;;;;;8.30;100.00;102157.91;4938197;28;20536;-79
2023/10/03 01:23:35;;;;;;;54.53;51.83;;;;;;;8.23;100.00;102157.69;4934309;29;20056;-78
2023/10/03 01:26:03;;;;;;;49.50;47.10;;;;;;;8.23;100.00;102167.47;4936148;29;20070;-78
2023/10/03 01:28:33;;;;;;;48.47;45.88;;;;;;;7.74;100.00;102165.22;4931101;29;20051;-79
2023/10/03 01:31:00;;;;;;;83.15;79.15;;;;;;;8.09;100.00;102165.38;4938988;29;20062;-79
2023/10/03 01:33:28;;;;;;;82.93;78.43;;;;;;;7.98;100.00;102174.38;4936280;29;20583;-79
2023/10/03 01:35:55;;;;;;;88.60;84.40;;;;;;;8.09;100.00;102168.84;4937133;29;20578;-78
2023/10/03 01:38:24;;;;;;;105.07;99.70;;;;;;;7.93;100.00;102161.63;4930174;29;20047;-78
2023/10/03 01:40:53;;;;;;;86.63;82.10;;;;;;;7.50;100.00;102168.50;4936272;29;20495;-78
2023/10/03 01:43:31;;;;;;;59.70;56.50;;;;;;;7.87;100.00;102169.34;4929893;29;20044;-78
2023/10/03 01:46:17;;;;;;;46.83;44.30;;;;;;;8.17;100.00;102168.91;4936408;29;20500;-79
2023/10/03 01:48:45;;;;;;;42.60;40.30;;;;;;;7.48;100.00;102159.06;4927007;29;20051;-79
2023/10/03 01:51:15;;;;;;;46.97;44.53;;;;;;;7.91;100.00;102171.50;4942092;28;20554;-79
2023/10/03 01:53:42;;;;;;;49.97;47.08;;;;;;;7.50;100.00;102170.28;4931641;29;20584;-78
2023/10/03 01:56:17;;;;;;;55.63;52.53;;;;;;;7.67;100.00;102168.66;4923354;29;20051;-79
2023/10/03 01:58:44;;;;;;;53.33;50.42;;;;;;;7.19;100.00;102167.16;4935773;28;20047;-79
2023/10/03 02:01:12;;;;;;;59.03;55.78;;;;;;;7.43;100.00;102169.25;4935749;29;20488;-79
2023/10/03 02:03:46;;;;;;;60.47;57.42;;;;;;;7.63;100.00;102165.47;4935795;29;20062;-78
2023/10/03 02:06:29;;;;;;;60.78;57.67;;;;;;;7.56;100.00;102159.97;4934149;29;20131;-78
2023/10/03 02:08:56;;;;;;;48.97;46.38;;;;;;;7.43;100.00;102158.66;4934176;29;20409;-77
2023/10/03 02:11:27;;;;;;;62.22;59.03;;;;;;;7.36;100.00;102149.69;4927799;29;20055;-77
2023/10/03 02:13:55;;;;;;;68.85;65.15;;;;;;;7.45;100.00;102159.38;4925135;29;20488;-78
2023/10/03 02:16:28;;;;;;;67.55;64.25;;;;;;;7.50;100.00;102150.00;4934627;29;20056;-78
2023/10/03 02:18:56;;;;;;;70.78;67.53;;;;;;;7.76;100.00;102157.16;4923930;29;20052;-78
2023/10/03 02:21:42;;;;;;;48.75;46.45;;;;;;;7.75;100.00;102155.50;4926318;29;20722;-78
2023/10/03 02:24:18;;;;;;;57.70;54.60;;;;;;;7.55;100.00;102149.53;4936354;29;20078;-78
2023/10/03 02:26:47;;;;;;;56.67;53.58;;;;;;;7.52;100.00;102153.31;4917843;29;20044;-78
2023/10/03 02:29:31;;;;;;;66.22;62.88;;;;;;;7.30;100.00;102149.28;4922323;29;20055;-78
2023/10/03 02:31:59;;;;;;;54.88;51.78;;;;;;;6.93;100.00;102148.53;4926867;29;20048;-78
2023/10/03 02:34:45;;;;;;;48.97;46.17;;;;;;;7.21;100.00;102152.00;4929837;29;20444;-78
2023/10/03 02:37:23;;;;;;;61.28;58.17;;;;;;;7.22;100.00;102151.00;4926151;29;20058;-78
2023/10/03 02:39:51;;;;;;;44.42;42.03;;;;;;;7.22;100.00;102148.38;4934967;29;20512;-78
2023/10/03 02:42:20;;;;;;;43.75;41.35;;;;;;;7.04;100.00;102148.34;4930446;29;20059;-79
2023/10/03 02:45:09;;;;;;;41.63;39.42;;;;;;;6.87;100.00;102149.97;4937424;29;20044;-78
2023/10/03 02:47:43;;;;;;;36.53;34.47;;;;;;;7.18;100.00;102150.50;4921387;29;20508;-79
2023/10/03 02:50:26;;;;;;;33.75;31.70;;;;;;;7.33;100.00;102154.28;4939464;29;20451;-79
2023/10/03 02:52:55;;;;;;;33.53;31.60;;;;;;;7.24;100.00;102149.06;4934827;29;20050;-79
2023/10/03 02:55:22;;;;;;;38.35;36.35;;;;;;;7.47;100.00;102149.44;4919308;29;20098;-79
2023/10/03 02:57:50;;;;;;;38.33;36.42;;;;;;;7.23;100.00;102147.38;4924373;29;20523;-78
2023/10/03 03:00:19;;;;;;;37.50;35.60;;;;;;;7.34;100.00;102145.34;4934609;29;20052;-79
2023/10/03 03:02:47;;;;;;;34.60;32.70;;;;;;;7.02;100.00;102143.22;4932060;28;20046;-78
2023/10/03 03:05:16;;;;;;;32.00;30.30;;;;;;;7.25;100.00;102146.25;4927246;29;20052;-78
2023/10/03 03:07:45;;;;;;;31.25;29.45;;;;;;;7.43;100.00;102145.44;4926534;29;20051;-78
2023/10/03 03:10:16;;;;;;;34.10;32.00;;;;;;;6.57;100.00;102146.63;4927412;29;20059;-78
2023/10/03 03:12:54;;;;;;;34.35;32.05;;;;;;;6.96;100.00;102145.59;4926891;29;20181;-79
2023/10/03 03:15:23;;;;;;;32.78;30.77;;;;;;;7.16;100.00;102148.97;4925145;29;20679;-78
2023/10/03 03:17:50;;;;;;;29.13;27.27;;;;;;;7.38;100.00;102150.34;4926891;29;20493;-79
2023/10/03 03:20:25;;;;;;;31.70;29.80;;;;;;;7.32;100.00;102146.47;4944072;29;20051;-79
2023/10/03 03:22:52;;;;;;;32.20;30.23;;;;;;;7.42;100.00;102144.63;4926781;29;20079;-79
2023/10/03 03:25:24;;;;;;;32.53;30.63;;;;;;;7.00;100.00;102144.34;4922148;29;20725;-79
2023/10/03 03:27:55;;;;;;;32.10;30.17;;;;;;;7.33;100.00;102151.63;4933792;29;20043;-77
2023/10/03 03:30:36;;;;;;;34.45;32.40;;;;;;;7.41;100.00;102142.13;4932784;29;20051;-79
2023/10/03 03:33:19;;;;;;;51.08;48.15;;;;;;;7.45;100.00;102146.97;4927446;29;20055;-79
2023/10/03 03:35:47;;;;;;;36.50;34.50;;;;;;;7.18;100.00;102142.56;4931706;29;20496;-78
2023/10/03 03:38:18;;;;;;;38.13;35.78;;;;;;;6.92;100.00;102141.59;4920233;29;20488;-78
2023/10/03 03:40:47;;;;;;;42.42;39.40;;;;;;;7.06;100.00;102149.84;4930700;29;20515;-79
2023/10/03 03:43:31;;;;;;;39.45;37.25;;;;;;;7.00;100.00;102149.63;4933858;29;20047;-78
2023/10/03 03:45:59;;;;;;;39.35;37.25;;;;;;;6.92;100.00;102144.22;4933040;29;20107;-77
2023/10/03 03:48:36;;;;;;;41.55;39.35;;;;;;;7.20;100.00;102145.03;4933955;29;20048;-79
2023/10/03 03:51:06;;;;;;;53.33;50.63;;;;;;;7.08;100.00;102150.56;4922407;29;20056;-79
2023/10/03 03:53:33;;;;;;;45.97;43.58;;;;;;;7.11;100.00;102147.63;4933477;29;20417;-77
2023/10/03 03:56:00;;;;;;;36.40;34.30;;;;;;;6.76;100.00;102150.16;4930854;29;20054;-77
2023/10/03 03:58:33;;;;;;;32.13;29.52;;;;;;;6.85;100.00;102144.81;4928842;29;20448;-77
2023/10/03 04:01:01;;;;;;;39.95;37.30;;;;;;;6.49;100.00;102138.56;4927816;29;20056;-78
2023/10/03 04:03:29;;;;;;;30.23;27.92;;;;;;;6.66;100.00;102152.84;4931799;29;20060;-78
2023/10/03 04:05:57;;;;;;;24.38;22.58;;;;;;;6.52;100.00;102150.66;4930418;29;20062;-78
2023/10/03 04:08:24;;;;;;;25.80;23.52;;;;;;;6.90;100.00;102144.41;4926004;29;20048;-78
2023/10/03 04:10:54;;;;;;;28.73;26.52;;;;;;;6.72;100.00;102160.19;4930445;29;20059;-78
2023/10/03 04:13:21;;;;;;;22.60;19.50;;;;;;;7.01;100.00;102159.19;4929891;29;20070;-78
2023/10/03 04:15:50;;;;;;;25.88;24.13;;;;;;;6.93;100.00;102145.88;4927588;29;20052;-78
2023/10/03 04:18:17;;;;;;;25.60;24.30;;;;;;;6.93;100.00;102144.09;4930689;29;20628;-78
2023/10/03 04:20:46;;;;;;;22.27;21.08;;;;;;;7.07;100.00;102148.03;4933216;29;20062;-78
2023/10/03 04:23:13;;;;;;;24.50;23.20;;;;;;;6.78;100.00;102149.03;4933273;29;20118;-78
2023/10/03 04:25:41;;;;;;;21.35;20.15;;;;;;;7.09;100.00;102152.22;4933172;29;20059;-78
2023/10/03 04:28:09;;;;;;;22.60;21.30;;;;;;;7.06;100.00;102152.50;4933493;29;20423;-78
2023/10/03 04:30:37;;;;;;;22.40;21.10;;;;;;;7.09;100.00;102157.50;4933696;29;20767;-77
2023/10/03 04:33:07;;;;;;;22.05;20.75;;;;;;;7.05;100.00;102161.41;4932168;29;20111;-79
2023/10/03 04:35:35;;;;;;;21.95;20.75;;;;;;;6.97;100.00;102160.47;4929835;29;20055;-77
2023/10/03 04:38:04;;;;;;;22.17;20.98;;;;;;;6.91;100.00;102164.53;4931844;29;20535;-79
2023/10/03 04:40:34;;;;;;;22.77;21.42;;;;;;;7.23;100.00;102165.88;4932944;29;20044;-78
2023/10/03 04:43:07;;;;;;;22.70;21.40;;;;;;;7.55;100.00;102173.34;4930641;29;20051;-79
2023/10/03 04:45:35;;;;;;;22.63;21.42;;;;;;;7.64;100.00;102171.59;4927276;29;20155;-78
2023/10/03 04:48:02;;;;;;;24.13;22.88;;;;;;;7.91;100.00;102178.63;4932124;29;20618;-79
2023/10/03 04:50:31;;;;;;;23.35;21.95;;;;;;;7.63;100.00;102176.06;4931163;29;20055;-77
2023/10/03 04:53:00;;;;;;;23.52;22.23;;;;;;;7.99;100.00;102170.75;4929323;29;20090;-78
2023/10/03 04:55:27;;;;;;;22.83;21.42;;;;;;;8.22;100.00;102182.47;4929109;29;20438;-77
2023/10/03 04:57:55;;;;;;;22.35;20.85;;;;;;;7.93;100.00;102179.31;4922174;29;20493;-78
2023/10/03 05:00:24;;;;;;;24.15;22.48;;;;;;;8.31;100.00;102178.09;4924599;29;20058;-78
2023/10/03 05:02:52;;;;;;;23.13;21.63;;;;;;;8.46;100.00;102178.38;4919875;29;20044;-78
2023/10/03 05:05:22;;;;;;;23.08;21.60;;;;;;;8.58;100.00;102178.94;4928273;29;20048;-78
2023/10/03 05:07:52;;;;;;;25.48;23.88;;;;;;;8.60;100.00;102183.09;4924940;29;20067;-79
2023/10/03 05:10:20;;;;;;;22.25;20.95;;;;;;;8.75;100.00;102174.59;4932026;29;20082;-79
2023/10/03 05:12:48;;;;;;;20.95;19.65;;;;;;;8.67;100.00;102175.34;4923539;29;20424;-79
2023/10/03 05:15:17;;;;;;;20.88;19.48;;;;;;;8.97;100.00;102175.81;4929063;29;20056;-79
2023/10/03 05:17:44;;;;;;;33.63;30.85;;;;;;;9.16;100.00;102180.84;4930925;29;20512;-79
2023/10/03 05:20:13;;;;;;;26.27;24.58;;;;;;;9.22;100.00;102180.22;4929837;29;20051;-78
2023/10/03 05:22:40;;;;;;;24.70;23.13;;;;;;;9.16;100.00;102175.56;4921808;29;20048;-79
2023/10/03 05:25:11;;;;;;;25.65;23.95;;;;;;;9.50;100.00;102183.44;4927412;29;20055;-78
2023/10/03 05:27:40;;;;;;;25.90;24.02;;;;;;;9.49;100.00;102188.91;4920898;29;20496;-79
2023/10/03 05:30:19;;;;;;;74.93;65.60;;;;;;;15.84;100.00;102179.59;4925944;29;20071;-80
2023/10/03 05:32:47;;;;;;;36.80;34.05;;;;;;;17.93;100.00;102173.06;4930958;29;20530;-80
2023/10/03 05:35:14;;;;;;;44.20;40.65;;;;;;;18.81;100.00;102174.69;4929247;29;20511;-78
2023/10/03 05:37:41;;;;;;;34.08;31.65;;;;;;;12.76;100.00;102185.56;4927052;29;20044;-78
2023/10/03 05:40:12;;;;;;;37.10;35.00;;;;;;;10.87;100.00;102187.16;4928038;29;20416;-78
2023/10/03 05:42:45;;;;;;;33.90;32.20;;;;;;;10.45;100.00;102193.59;4920917;29;20075;-78
2023/10/03 05:45:12;;;;;;;29.65;28.15;;;;;;;9.97;100.00;102197.91;4927809;29;20488;-77
2023/10/03 05:47:40;;;;;;;29.38;27.50;;;;;;;10.29;100.00;102200.59;4923185;29;20126;-78
2023/10/03 05:50:09;;;;;;;25.60;24.10;;;;;;;10.28;100.00;102201.56;4930357;29;20048;-78
2023/10/03 05:53:12;;;;;;;24.58;22.55;;;;;;;10.45;100.00;102201.56;4916440;29;20056;-79
2023/10/03 05:55:41;;;;;;;38.75;35.00;;;;;;;10.41;100.00;102198.41;4922313;29;20063;-79
2023/10/03 05:58:07;;;;;;;30.58;28.52;;;;;;;10.59;100.00;102200.88;4920524;29;20054;-80
2023/10/03 06:00:35;;;;;;;36.80;34.70;;;;;;;10.69;100.00;102206.00;4932820;29;20050;-80
2023/10/03 06:03:03;;;;;;;37.95;35.75;;;;;;;10.74;100.00;102207.16;4930695;29;20544;-78
2023/10/03 06:05:29;;;;;;;37.53;34.92;;;;;;;10.75;100.00;102207.97;4915848;29;20052;-78
2023/10/03 06:08:00;;;;;;;34.67;32.05;;;;;;;10.92;100.00;102206.06;4929761;29;20051;-79
2023/10/03 06:10:29;;;;;;;37.28;34.85;;;;;;;11.29;100.00;102202.75;4933519;29;20056;-79
2023/10/03 06:12:57;;;;;;;38.55;36.55;;;;;;;11.55;100.00;102210.41;4921910;29;20119;-79
2023/10/03 06:15:25;;;;;;;39.35;37.45;;;;;;;11.48;100.00;102216.63;4925125;29;20055;-80
2023/10/03 06:17:52;;;;;;;35.08;32.78;;;;;;;11.58;100.00;102212.72;4926747;29;20048;-80
2023/10/03 06:20:19;;;;;;;33.13;31.33;;;;;;;11.84;100.00;102219.56;4935846;29;20432;-80
2023/10/03 06:23:02;;;;;;;34.25;31.85;;;;;;;12.10;100.00;102221.84;4930139;29;20135;-80
2023/10/03 06:25:32;;;;;;;36.22;32.50;;;;;;;12.27;100.00;102219.91;4929006;29;20043;-80
2023/10/03 06:28:01;;;;;;;27.98;26.17;;;;;;;12.59;100.00;102216.09;4929537;29;20051;-79
2023/10/03 06:30:28;;;;;;;27.63;25.88;;;;;;;12.36;100.00;102222.28;4934455;29;20055;-79
2023/10/03 06:32:55;;;;;;;26.30;24.60;;;;;;;12.68;100.00;102223.00;4935380;29;20054;-79
2023/10/03 06:35:22;;;;;;;27.42;25.30;;;;;;;13.12;100.00;102215.97;4930510;29;20533;-78
2023/10/03 06:37:49;;;;;;;28.85;27.35;;;;;;;13.11;100.00;102222.34;4923986;29;20066;-77
2023/10/03 06:40:16;;;;;;;32.95;30.85;;;;;;;13.47;100.00;102209.03;4922784;29;20118;-78
2023/10/03 06:42:43;;;;;;;32.22;30.42;;;;;;;13.47;100.00;102222.38;4928271;29;20055;-78
2023/10/03 06:45:13;;;;;;;31.20;29.60;;;;;;;14.07;100.00;102220.28;4928965;29;20579;-78
2023/10/03 06:47:40;;;;;;;28.13;26.52;;;;;;;14.11;100.00;102224.22;4930452;29;20556;-77
2023/10/03 06:50:08;;;;;;;30.98;29.08;;;;;;;14.48;100.00;102223.06;4930156;29;20063;-78
2023/10/03 06:52:36;;;;;;;36.30;34.30;;;;;;;14.51;100.00;102219.19;4924786;29;20048;-78
2023/10/03 06:55:03;;;;;;;34.28;32.38;;;;;;;14.71;100.00;102219.34;4927299;29;20048;-79
2023/10/03 06:57:32;;;;;;;30.35;28.65;;;;;;;14.98;100.00;102220.31;4926649;29;20048;-79
2023/10/03 06:59:59;;;;;;;32.38;30.48;;;;;;;15.27;100.00;102224.56;4915758;29;20059;-79
2023/10/03 07:02:28;;;;;;;30.45;28.75;;;;;;;15.45;100.00;102213.28;4921753;29;20063;-79
2023/10/03 07:04:54;;;;;;;31.75;29.90;;;;;;;15.62;100.00;102211.88;4924549;29;20479;-79
2023/10/03 07:07:21;;;;;;;29.45;27.65;;;;;;;15.72;100.00;102212.34;4931019;29;20056;-79
2023/10/03 07:09:48;;;;;;;31.30;29.40;;;;;;;16.08;100.00;102219.19;4920709;29;20059;-79
2023/10/03 07:12:17;;;;;;;30.23;28.35;;;;;;;16.39;100.00;102218.53;4925224;29;20048;-78
2023/10/03 07:14:46;;;;;;;29.52;27.83;;;;;;;16.35;100.00;102216.50;4920127;29;20147;-78
2023/10/03 07:17:14;;;;;;;28.33;26.67;;;;;;;16.98;100.00;102221.34;4923505;29;20051;-78
2023/10/03 07:19:45;;;;;;;26.67;24.92;;;;;;;17.16;100.00;102214.25;4922023;29;20508;-78
2023/10/03 07:22:12;;;;;;;23.00;21.50;;;;;;;17.47;100.00;102212.63;4922134;29;20052;-79
2023/10/03 07:24:39;;;;;;;28.90;26.48;;;;;;;17.88;100.00;102200.59;4923002;29;20127;-78
2023/10/03 07:27:07;;;;;;;28.88;27.08;;;;;;;17.76;100.00;102199.63;4922685;29;20056;-78
2023/10/03 07:29:36;;;;;;;28.25;26.65;;;;;;;17.72;100.00;102198.41;4921027;29;20050;-79
2023/10/03 07:32:03;;;;;;;27.60;26.10;;;;;;;18.40;100.00;102203.06;4931395;29;20083;-77
2023/10/03 07:34:30;;;;;;;29.80;28.20;;;;;;;18.56;100.00;102198.97;4922636;29;20460;-77
2023/10/03 07:36:59;;;;;;;33.90;32.30;;;;;;;19.34;100.00;102195.56;4922964;29;20058;-78
2023/10/03 07:39:26;;;;;;;35.60;33.67;;;;;;;19.85;100.00;102195.03;4926480;29;20052;-77
2023/10/03 07:41:53;;;;;;;33.58;31.77;;;;;;;20.07;100.00;102197.97;4931487;29;20589;-78
2023/10/03 07:44:25;;;;;;;36.30;34.35;;;;;;;20.30;100.00;102197.16;4928175;29;20075;-79
2023/10/03 07:47:00;;;;;;;34.75;32.95;;;;;;;20.72;100.00;102197.00;4920076;29;20118;-79
2023/10/03 07:49:29;;;;;;;29.90;28.40;;;;;;;20.79;100.00;102194.19;4921300;29;20054;-78
2023/10/03 07:51:59;;;;;;;26.83;24.98;;;;;;;20.86;100.00;102196.75;4933822;29;20075;-80
2023/10/03 07:54:31;;;;;;;28.60;26.80;;;;;;;21.44;100.00;102195.75;4931905;29;20051;-79
2023/10/03 07:57:03;;;;;;;46.88;28.52;;;;;;;19.71;100.00;102190.06;4925174;29;20567;-78
2023/10/03 07:59:30;;;;;;;31.23;29.42;;;;;;;20.87;100.00;102193.81;4925259;29;20432;-79
2023/10/03 08:02:04;;;;;;;30.58;28.88;;;;;;;21.33;100.00;102188.47;4929278;29;20060;-78
2023/10/03 08:04:32;;;;;;;35.63;33.83;;;;;;;21.47;100.00;102198.78;4926366;29;20047;-81
2023/10/03 08:07:01;;;;;;;37.58;35.80;;;;;;;22.06;100.00;102186.75;4933913;29;20443;-79
2023/10/03 08:09:27;;;;;;;35.40;33.70;;;;;;;22.56;100.00;102185.88;4921541;29;20052;-79
2023/10/03 08:12:11;;;;;;;30.70;28.88;;;;;;;21.97;100.00;102191.78;4930250;29;20055;-79
2023/10/03 08:14:38;;;;;;;32.58;30.98;;;;;;;23.14;100.00;102186.31;4933502;29;20048;-79
2023/10/03 08:17:06;;;;;;;39.13;36.95;;;;;;;22.53;96.14;102186.38;4930404;29;20051;-79
2023/10/03 08:19:40;;;;;;;34.88;33.17;;;;;;;22.83;93.37;102194.06;4934171;29;20574;-79
2023/10/03 08:22:12;;;;;;;36.10;34.00;;;;;;;23.03;87.30;102186.22;4921727;29;20067;-79
2023/10/03 08:24:44;;;;;;;;;;;;;;;23.93;82.59;102185.69;4929658;29;20044;-78
2023/10/03 08:27:18;;;;;;;26.33;24.92;;;;;;;23.24;81.77;102184.53;4929572;29;19923;-79
2023/10/03 08:29:50;;;;;;;26.63;25.13;;;;;;;23.50;84.08;102184.78;4924859;29;20048;-79
2023/10/03 08:32:17;;;;;;;26.95;25.45;;;;;;;23.07;85.39;102172.97;4919409;29;20091;-79
2023/10/03 08:34:46;;;;;;;26.17;24.67;;;;;;;23.26;86.35;102171.53;4929407;29;20051;-79
2023/10/03 08:37:21;;;;;;;24.85;23.45;;;;;;;23.42;89.40;102182.53;4926826;29;20052;-80
2023/10/03 08:39:50;;;;;;;29.30;27.70;;;;;;;23.36;85.14;102168.13;4920403;29;20048;-79
2023/10/03 08:42:18;;;;;;;30.05;28.45;;;;;;;23.64;79.60;102175.16;4928761;29;20039;-80
2023/10/03 08:44:53;;;;;;;29.63;27.92;;;;;;;23.72;78.71;102165.72;4934543;29;20059;-80
2023/10/03 08:47:28;;;;;;;33.10;31.20;;;;;;;24.45;78.63;102164.06;4933739;29;20060;-80
2023/10/03 08:50:10;;;;;;;32.40;30.52;;;;;;;24.94;71.38;102156.66;4933388;29;20507;-79
2023/10/03 08:52:46;;;;;;;25.25;23.70;;;;;;;24.93;68.41;102161.25;4922051;29;20075;-79
2023/10/03 08:55:14;;;;;;;29.10;26.98;;;;;;;23.86;85.41;102150.66;4921276;29;20056;-78
2023/10/03 08:57:41;;;;;;;27.42;25.73;;;;;;;24.54;72.82;102149.97;4920042;29;20052;-78
2023/10/03 09:00:10;;;;;;;29.17;27.25;;;;;;;25.71;67.04;102152.91;4921622;29;20054;-79
2023/10/03 09:02:46;;;;;;;22.75;21.17;;;;;;;25.55;64.42;102152.13;4931981;29;20122;-79
2023/10/03 09:05:19;;;;;;;23.77;22.27;;;;;;;26.03;60.25;102149.09;4933712;29;20508;-79
2023/10/03 09:07:48;;;;;;;25.65;23.95;;;;;;;26.03;58.18;102147.19;4935430;29;20056;-79
2023/10/03 09:10:23;;;;;;;23.98;22.27;;;;;;;25.52;57.57;102147.22;4930255;29;20059;-80
2023/10/03 09:12:51;;;;;;;22.77;21.25;;;;;;;25.12;57.65;102150.69;4930065;29;20048;-79
2023/10/03 09:15:22;;;;;;;25.90;23.95;;;;;;;25.42;59.13;102146.38;4930586;29;20052;-79
2023/10/03 09:17:50;;;;;;;23.38;21.88;;;;;;;26.39;56.84;102138.94;4924404;29;20180;-78
2023/10/03 09:20:31;;;;;;;24.85;23.25;;;;;;;25.86;56.91;102151.31;4931166;29;20515;-77
2023/10/03 09:23:06;;;;;;;26.50;24.88;;;;;;;26.12;56.30;102147.44;4932939;29;20067;-78
2023/10/03 09:25:33;;;;;;;26.90;25.20;;;;;;;26.09;56.53;102148.00;4928367;29;20044;-77
2023/10/03 09:28:05;;;;;;;25.80;24.20;;;;;;;23.15;86.99;102137.28;4927997;29;20150;-78
2023/10/03 09:30:37;;;;;;;27.60;25.80;;;;;;;26.30;62.30;102137.88;4930231;29;20062;-78
2023/10/03 09:33:05;;;;;;;;;;;;;;;26.97;59.85;102130.22;4924732;29;20390;-78
2023/10/03 09:35:33;;;;;;;26.92;25.33;;;;;;;26.57;55.20;102129.34;4929484;29;20434;-79
2023/10/03 09:38:05;;;;;;;30.67;28.88;;;;;;;26.87;53.92;102128.38;4930777;29;20086;-79
2023/10/03 09:40:48;;;;;;;29.42;27.70;;;;;;;27.09;53.00;102124.41;4920997;29;20052;-78
2023/10/03 09:43:19;;;;;;;28.42;26.63;;;;;;;26.94;53.59;102117.94;4928291;29;20115;-80
2023/10/03 09:45:47;;;;;;;25.05;23.42;;;;;;;26.64;56.06;102118.94;4930283;29;20106;-78
2023/10/03 09:48:15;;;;;;;25.40;23.90;;;;;;;26.83;55.42;102118.28;4925620;29;20103;-78
2023/10/03 09:50:51;;;;;;;33.60;31.80;;;;;;;26.37;55.36;102119.31;4932794;29;20048;-78
2023/10/03 09:53:19;;;;;;;30.80;29.20;;;;;;;27.71;55.39;102103.69;4916992;29;20112;-78
2023/10/03 09:55:49;;;;;;;29.52;27.90;;;;;;;28.22;48.94;102105.09;4922062;29;20063;-78
2023/10/03 09:58:24;;;;;;;26.40;24.60;;;;;;;27.09;53.96;102103.41;4933860;29;20484;-78
2023/10/03 10:00:53;;;;;;;28.77;27.17;;;;;;;26.50;54.58;102105.09;4930595;29;20432;-78
2023/10/03 10:03:27;;;;;;;28.13;26.52;;;;;;;26.80;51.66;102094.34;4934045;29;20040;-77
2023/10/03 10:06:12;;;;;;;28.98;27.38;;;;;;;26.98;56.57;102088.22;4932134;29;20040;-78
2023/10/03 10:08:46;;;;;;;28.80;27.20;;;;;;;28.03;50.44;102085.94;4929887;29;20429;-77
2023/10/03 10:11:15;;;;;;;29.15;27.55;;;;;;;28.39;48.97;102090.97;4930844;29;20131;-76
2023/10/03 10:14:08;;;;;;;29.80;28.02;;;;;;;28.08;47.90;102085.88;4928529;29;20063;-76
2023/10/03 10:16:35;;;;;;;27.55;25.95;;;;;;;27.33;53.41;102083.63;4924772;29;20044;-77
2023/10/03 10:19:04;;;;;;;27.88;26.27;;;;;;;26.66;55.47;102086.00;4925530;29;20059;-76
2023/10/03 10:21:32;;;;;;;27.60;25.95;;;;;;;26.94;56.64;102078.97;4928060;29;20119;-77
2023/10/03 10:24:28;;;;;;;26.90;25.30;;;;;;;27.03;53.25;102068.28;4923215;29;20048;-76
2023/10/03 10:26:59;;;;;;;27.70;25.70;;;;;;;26.57;58.65;102065.88;4918759;29;20284;-77
2023/10/03 10:29:28;;;;;;;30.50;28.60;;;;;;;27.12;62.76;102061.94;4926340;29;20527;-76
2023/10/03 10:31:58;;;;;;;28.00;26.15;;;;;;;27.36;55.88;102062.03;4923135;29;20067;-77
2023/10/03 10:34:46;;;;;;;24.75;23.08;;;;;;;27.09;54.90;102064.44;4928984;29;20091;-76
2023/10/03 10:37:17;;;;;;;29.45;27.75;;;;;;;28.77;49.17;102054.34;4923720;29;20086;-76
2023/10/03 10:40:11;;;;;;;24.42;22.83;;;;;;;29.44;48.08;102051.34;4925316;29;20055;-77
2023/10/03 10:42:59;;;;;;;28.02;26.00;;;;;;;26.54;57.99;102055.50;4920895;29;20078;-78
2023/10/03 10:45:27;;;;;;;26.77;25.27;;;;;;;27.18;56.81;102043.66;4928232;29;20040;-77
2023/10/03 10:47:57;;;;;;;27.48;25.88;;;;;;;27.65;51.85;102053.00;4918526;29;20102;-79
2023/10/03 10:50:27;;;;;;;27.00;25.50;;;;;;;26.66;54.77;102047.84;4928541;29;20056;-78
2023/10/03 10:52:56;;;;;;;23.52;22.05;;;;;;;25.72;65.48;102051.19;4931272;29;20090;-78
2023/10/03 10:55:23;;;;;;;25.65;24.15;;;;;;;27.79;52.76;102040.34;4915277;29;20135;-78
2023/10/03 10:58:07;;;;;;;27.20;25.02;;;;;;;29.24;45.02;102024.34;4923722;29;20062;-78
2023/10/03 11:00:34;;;;;;;28.17;26.48;;;;;;;30.05;44.49;102030.19;4925987;29;20052;-78
2023/10/03 11:03:02;;;;;;;27.00;25.40;;;;;;;26.23;54.21;102034.69;4923919;29;20512;-77
2023/10/03 11:05:41;;;;;;;28.42;26.83;;;;;;;28.19;52.35;102030.00;4924640;29;20059;-76
2023/10/03 11:08:08;;;;;;;28.08;26.55;;;;;;;30.07;46.32;102016.97;4917814;29;20051;-78
2023/10/03 11:10:35;;;;;;;32.67;29.75;;;;;;;28.94;45.54;102022.94;4920524;29;20518;-78
2023/10/03 11:13:07;;;;;;;24.50;23.00;;;;;;;26.97;54.29;102012.19;4921239;29;20431;-76
2023/10/03 11:15:35;;;;;;;24.90;23.40;;;;;;;25.98;59.71;102024.72;4920559;29;20506;-77
2023/10/03 11:18:02;;;;;;;25.27;23.67;;;;;;;26.72;53.79;102022.19;4920933;29;20431;-78
2023/10/03 11:20:29;;;;;;;23.15;21.65;;;;;;;27.98;51.93;102007.63;4922478;29;20071;-77
2023/10/03 11:22:55;;;;;;;24.65;23.15;;;;;;;29.13;47.47;102004.56;4919195;29;20058;-77
2023/10/03 11:25:22;;;;;;;22.95;20.92;;;;;;;29.27;45.48;102001.88;4927488;29;20439;-80